Time;durP1;ratioP1;P1;durP2;ratioP2;P2;SDS_P1;SDS_P2;PMS_P1;PMS_P2;Temp;Humidity;BMP_temperature;BMP_pressure;BME280_temperature;BME280_humidity;BME280_pressure;Samples;Min_cycle;Max_cycle;Signal;HPM_P1;HPM_P2
2023/01/25 00:01:30;;;;;;;;;;;;;;;-1.30;73.65;101300.63;5053600;28;20036;-65
2023/01/25 00:03:57;;;;;;;;;;;;;;;-1.31;73.39;101299.78;5052750;28;19929;-64
2023/01/25 00:06:23;;;;;;;;;;;;;;;-1.31;73.29;101290.91;5042627;28;19933;-65
2023/01/25 00:08:48;;;;;;;;;;;;;;;-1.31;73.47;101289.03;5028525;28;19936;-65
2023/01/25 00:11:15;;;;;;;;;;;;;;;-1.24;73.47;101294.63;5053822;28;20049;-65
2023/01/25 00:13:43;;;;;;;;;;;;;;;-1.19;73.14;101291.47;5031835;28;19955;-66
2023/01/25 00:16:08;;;;;;;;;;;;;;;-1.20;72.48;101287.91;5024641;28;19932;-66
2023/01/25 00:18:34;;;;;;;;;;;;;;;-1.29;72.73;101284.34;5026010;28;19979;-66
2023/01/25 00:21:10;;;;;;;;;;;;;;;-1.34;72.92;101284.00;5030623;28;19929;-66
2023/01/25 00:23:36;;;;;;;;;;;;;;;-1.33;72.92;101279.47;5044520;28;20678;-66
2023/01/25 00:26:01;;;;;;;;;;;;;;;-1.26;72.63;101280.50;5029675;28;19932;-66
2023/01/25 00:28:27;;;;;;;;;;;;;;;-1.22;72.81;101291.78;5050662;28;19929;-66
2023/01/25 00:30:57;;;;;;;;;;;;;;;-1.22;72.61;101287.25;5048781;28;19974;-66
2023/01/25 00:33:40;;;;;;;;;;;;;;;-1.19;72.57;101284.22;5021477;28;19928;-67
2023/01/25 00:36:24;;;;;;;;;;;;;;;-1.19;72.52;101273.50;5045115;28;19935;-66
2023/01/25 00:38:52;;;;;;;;;;;;;;;-1.14;72.10;101270.31;5022872;28;20059;-66
2023/01/25 00:41:18;;;;;;;;;;;;;;;-1.10;72.14;101269.00;5010224;28;19929;-66
2023/01/25 00:43:44;;;;;;;;;;;;;;;-1.09;71.83;101272.53;5045804;28;20019;-66
2023/01/25 00:46:13;;;;;;;;;;;;;;;-1.18;71.94;101267.13;5012334;28;20074;-66
2023/01/25 00:48:39;;;;;;;;;;;;;;;-1.22;72.12;101268.44;5031294;28;19960;-66
2023/01/25 00:51:05;;;;;;;;;;;;;;;-1.26;72.29;101259.03;5043524;28;19963;-66
2023/01/25 00:53:31;;;;;;;;;;;;;;;-1.29;72.36;101249.47;5031513;28;19928;-66
2023/01/25 00:55:57;;;;;;;;;;;;;;;-1.32;72.67;101239.06;5023259;28;19951;-65
2023/01/25 00:58:23;;;;;;;;;;;;;;;-1.32;73.02;101243.59;5038920;28;19935;-65
2023/01/25 01:00:51;;;;;;;;;;;;;;;-1.25;73.01;101238.41;5021301;28;19975;-64
2023/01/25 01:03:18;;;;;;;;;;;;;;;-1.19;72.88;101238.59;5029803;28;19936;-67
2023/01/25 01:05:45;;;;;;;;;;;;;;;-1.17;72.68;101246.50;5012265;28;19933;-65
2023/01/25 01:08:11;;;;;;;;;;;;;;;-1.12;72.23;101251.38;5050738;28;19929;-65
2023/01/25 01:10:38;;;;;;;;;;;;;;;-1.08;71.98;101239.31;5049361;28;19969;-65
2023/01/25 01:13:03;;;;;;;;;;;;;;;-1.11;72.14;101245.00;5033986;28;19956;-65
2023/01/25 01:15:29;;;;;;;;;;;;;;;-1.19;72.26;101237.78;5032603;28;19932;-65
2023/01/25 01:17:55;;;;;;;;;;;;;;;-1.25;72.40;101230.34;5038269;28;19929;-65
2023/01/25 01:20:22;;;;;;;;;;;;;;;-1.31;72.60;101230.00;5036472;28;20252;-65
2023/01/25 01:22:50;;;;;;;;;;;;;;;-1.31;72.26;101229.16;5041874;28;20222;-65
2023/01/25 01:25:16;;;;;;;;;;;;;;;-1.31;71.93;101229.16;5046816;28;19928;-65
2023/01/25 01:27:42;;;;;;;;;;;;;;;-1.34;71.78;101224.97;5015315;28;19929;-65
2023/01/25 01:30:08;;;;;;;;;;;;;;;-1.35;71.42;101228.66;5039782;28;19935;-65
2023/01/25 01:32:34;;;;;;;;;;;;;;;-1.45;71.59;101223.41;5043171;28;19990;-65
2023/01/25 01:35:01;;;;;;;;;;;;;;;-1.45;71.88;101219.88;5013173;28;19929;-66
2023/01/25 01:37:28;;;;;;;;;;;;;;;-1.46;71.91;101223.56;5039701;28;20354;-65
2023/01/25 01:39:54;;;;;;;;;;;;;;;-1.46;72.16;101213.69;5028762;28;19929;-65
2023/01/25 01:42:19;;;;;;;;;;;;;;;-1.41;72.18;101205.13;5054450;28;20500;-65
2023/01/25 01:44:47;;;;;;;;;;;;;;;-1.29;72.07;101208.38;4998731;28;20248;-66
2023/01/25 01:47:16;;;;;;;;;;;;;;;-1.22;71.31;101200.53;5043022;28;19935;-65
2023/01/25 01:49:45;;;;;;;;;;;;;;;-1.21;71.23;101204.88;5026859;28;20579;-66
2023/01/25 01:52:16;;;;;;;;;;;;;;;-1.18;70.97;101201.88;5021978;28;19936;-66
2023/01/25 01:54:46;;;;;;;;;;;;;;;-1.20;71.09;101201.19;5030014;28;20193;-66
2023/01/25 01:57:13;;;;;;;;;;;;;;;-1.27;71.35;101197.47;5028394;28;19976;-66
2023/01/25 01:59:43;;;;;;;;;;;;;;;-1.36;71.46;101191.22;5034503;28;19972;-67
2023/01/25 02:02:09;;;;;;;;;;;;;;;-1.39;72.02;101192.41;5044532;28;20427;-66
2023/01/25 02:04:35;;;;;;;;;;;;;;;-1.43;71.83;101191.88;5018713;28;19933;-66
2023/01/25 02:07:06;;;;;;;;;;;;;;;-1.45;72.06;101190.34;5015582;28;20350;-66
2023/01/25 02:09:34;;;;;;;;;;;;;;;-1.42;71.98;101190.03;5042424;28;20033;-66
2023/01/25 02:12:02;;;;;;;;;;;;;;;-1.43;71.81;101182.97;5013542;28;20361;-66
2023/01/25 02:14:30;;;;;;;;;;;;;;;-1.36;71.71;101189.38;5036301;28;19976;-67
2023/01/25 02:16:57;;;;;;;;;;;;;;;-1.53;71.38;101152.78;5031430;28;20027;-66
2023/01/25 02:19:29;;;;;;;;;;;;;;;-1.25;71.35;101192.75;5029238;28;19949;-66
2023/01/25 02:21:56;;;;;;;;;;;;;;;-1.22;71.03;101197.84;5039676;28;19956;-67
2023/01/25 02:24:24;;;;;;;;;;;;;;;-1.21;71.06;101199.50;5033738;28;19937;-65
2023/01/25 02:26:51;;;;;;;;;;;;;;;-1.22;70.89;101197.84;5035121;28;19987;-65
2023/01/25 02:29:19;;;;;;;;;;;;;;;-1.24;70.74;101200.66;5001637;28;19987;-65
2023/01/25 02:31:45;;;;;;;;;;;;;;;-1.23;70.54;101205.03;5043333;28;19991;-65
2023/01/25 02:34:11;;;;;;;;;;;;;;;-1.30;70.63;101193.28;5033021;28;19929;-65
2023/01/25 02:36:39;;;;;;;;;;;;;;;-1.35;70.78;101201.81;5033966;28;19935;-66
2023/01/25 02:39:07;;;;;;;;;;;;;;;-1.36;71.05;101204.63;5041987;28;19929;-65
2023/01/25 02:41:36;;;;;;;;;;;;;;;-1.39;71.24;101211.19;5027730;28;19952;-66
2023/01/25 02:44:05;;;;;;;;;;;;;;;-1.37;71.50;101202.97;5049331;28;19989;-65
2023/01/25 02:46:32;;;;;;;;;;;;;;;-1.33;71.44;101205.16;5051765;28;20399;-65
2023/01/25 02:48:59;;;;;;;;;;;;;;;-1.31;71.45;101207.69;5008002;28;20375;-65
2023/01/25 02:51:28;;;;;;;;;;;;;;;-1.47;71.65;101177.13;5023447;28;20067;-65
2023/01/25 02:53:54;;;;;;;;;;;;;;;-1.36;71.68;101207.31;5036299;28;20427;-65
2023/01/25 02:56:20;;;;;;;;;;;;;;;-1.36;72.13;101200.13;5019891;28;19966;-65
2023/01/25 02:58:47;;;;;;;;;;;;;;;-1.32;72.41;101204.16;5035907;28;19978;-63
2023/01/25 03:01:16;;;;;;;;;;;;;;;-1.32;72.30;101204.16;5009762;28;20323;-66
2023/01/25 03:03:42;;;;;;;;;;;;;;;-1.34;72.37;101203.47;5037683;28;20028;-65
2023/01/25 03:06:07;;;;;;;;;;;;;;;-1.35;72.52;101199.13;5032842;28;20015;-66
2023/01/25 03:08:33;;;;;;;;;;;;;;;-1.26;72.54;101202.69;5025983;28;20394;-65
2023/01/25 03:11:01;;;;;;;;;;;;;;;-1.23;72.29;101194.28;5032425;28;20031;-66
2023/01/25 03:13:29;;;;;;;;;;;;;;;-1.18;72.34;101199.19;5026742;28;19929;-65
2023/01/25 03:15:57;;;;;;;;;;;;;;;-1.22;72.23;101197.84;5042626;28;20059;-65
2023/01/25 03:18:25;;;;;;;;;;;;;;;-1.20;72.45;101199.31;5046416;28;20369;-65
2023/01/25 03:20:50;;;;;;;;;;;;;;;-1.13;72.08;101185.28;5055688;28;19936;-65
2023/01/25 03:23:16;;;;;;;;;;;;;;;-1.06;71.39;101180.91;5018405;28;19929;-65
2023/01/25 03:25:42;;;;;;;;;;;;;;;-1.14;71.44;101176.38;4997759;28;19964;-66
2023/01/25 03:28:13;;;;;;;;;;;;;;;-1.26;71.75;101177.66;5019508;28;19929;-66
2023/01/25 03:30:39;;;;;;;;;;;;;;;-1.32;72.06;101182.69;5036408;28;19932;-67
2023/01/25 03:33:07;;;;;;;;;;;;;;;-1.37;72.36;101176.97;5057715;28;19936;-66
2023/01/25 03:35:34;;;;;;;;;;;;;;;-1.44;72.55;101176.78;5047086;28;19929;-66
2023/01/25 03:38:00;;;;;;;;;;;;;;;-1.48;72.70;101163.84;5041936;28;20039;-66
2023/01/25 03:40:26;;;;;;;;;;;;;;;-1.47;73.06;101181.63;5037930;28;19976;-67
2023/01/25 03:42:52;;;;;;;;;;;;;;;-1.47;72.97;101174.44;5038220;28;20463;-66
2023/01/25 03:45:18;;;;;;;;;;;;;;;-1.46;73.08;101161.84;5035958;28;19939;-66
2023/01/25 03:47:44;;;;;;;;;;;;;;;-1.44;72.93;101171.41;5052949;28;19983;-66
2023/01/25 03:50:10;;;;;;;;;;;;;;;-1.46;73.26;101170.75;5028184;28;19915;-65
2023/01/25 03:52:40;;;;;;;;;;;;;;;-1.43;73.29;101177.59;5032439;28;19935;-66
2023/01/25 03:55:07;;;;;;;;;;;;;;;-1.39;73.14;101175.44;4999038;28;19928;-66
2023/01/25 03:57:37;;;;;;;;;;;;;;;-1.39;73.26;101172.75;4996444;28;19964;-66
2023/01/25 04:00:04;;;;;;;;;;;;;;;-1.35;73.30;101180.34;5029112;28;20300;-65
2023/01/25 04:02:40;;;;;;;;;;;;;;;-1.36;73.19;101181.34;5051304;28;19968;-65
2023/01/25 04:05:07;;;;;;;;;;;;;;;-1.32;73.29;101184.56;4996394;28;19929;-65
2023/01/25 04:07:33;;;;;;;;;;;;;;;-1.30;73.36;101177.16;5030742;28;19935;-65
2023/01/25 04:10:04;;;;;;;;;;;;;;;-1.35;73.55;101174.13;5032838;28;19928;-65
2023/01/25 04:12:30;;;;;;;;;;;;;;;-1.37;73.54;101176.97;5027591;28;20253;-65
2023/01/25 04:14:57;;;;;;;;;;;;;;;-1.37;73.68;101173.44;5009815;28;19971;-65
2023/01/25 04:17:24;;;;;;;;;;;;;;;-1.38;73.90;101161.88;4995338;28;19933;-65
2023/01/25 04:20:12;;;;;;;;;;;;;;;-1.38;73.93;101159.19;5035422;28;19933;-65
2023/01/25 04:22:39;;;;;;;;;;;;;;;-1.40;73.89;101166.56;4995679;28;20075;-65
2023/01/25 04:25:07;;;;;;;;;;;;;;;-1.36;74.08;101156.34;5041472;28;19982;-65
2023/01/25 04:27:33;;;;;;;;;;;;;;;-1.34;74.25;101157.00;5034606;28;20426;-65
2023/01/25 04:30:06;;;;;;;;;;;;;;;-1.34;74.15;101165.06;5031761;28;19968;-66
2023/01/25 04:32:34;;;;;;;;;;;;;;;-1.35;74.41;101161.56;5012999;28;19941;-65
2023/01/25 04:35:00;;;;;;;;;;;;;;;-1.32;74.26;101165.75;5026612;28;20035;-65
2023/01/25 04:37:28;;;;;;;;;;;;;;;-1.30;74.56;101171.81;5024542;28;19968;-65
2023/01/25 04:39:58;;;;;;;;;;;;;;;-1.33;74.53;101172.97;5021170;28;19929;-65
2023/01/25 04:42:26;;;;;;;;;;;;;;;-1.36;74.88;101183.16;5031998;28;20438;-65
2023/01/25 04:44:55;;;;;;;;;;;;;;;-1.47;75.20;101174.44;5031087;28;19928;-64
2023/01/25 04:47:21;;;;;;;;;;;;;;;-1.45;75.63;101180.47;5015838;28;20293;-65
2023/01/25 04:49:47;;;;;;;;;;;;;;;-1.42;75.62;101171.25;5028371;28;20296;-65
2023/01/25 04:52:16;;;;;;;;;;;;;;;-1.37;75.62;101182.34;5026442;28;20471;-65
2023/01/25 04:54:42;;;;;;;;;;;;;;;-1.36;75.29;101184.03;5013094;28;20043;-65
2023/01/25 04:57:08;;;;;;;;;;;;;;;-1.35;75.34;101184.84;5006182;28;19967;-64
2023/01/25 04:59:35;;;;;;;;;;;;;;;-1.30;75.35;101188.72;5034859;28;20373;-64
2023/01/25 05:02:01;;;;;;;;;;;;;;;-1.26;75.30;101185.72;5028087;28;20388;-65
2023/01/25 05:04:27;;;;;;;;;;;;;;;-1.27;75.15;101184.88;5009945;28;19978;-65
2023/01/25 05:06:53;;;;;;;;;;;;;;;-1.30;74.90;101191.41;5012229;28;19933;-64
2023/01/25 05:09:19;;;;;;;;;;;;;;;-1.35;74.75;101191.06;5031974;28;19928;-65
2023/01/25 05:11:46;;;;;;;;;;;;;;;-1.43;74.77;101193.72;5009074;28;20059;-65
2023/01/25 05:14:23;;;;;;;;;;;;;;;-1.54;74.88;101186.78;5033491;28;19940;-65
2023/01/25 05:16:51;;;;;;;;;;;;;;;-1.61;75.03;101185.75;5044673;28;19929;-65
2023/01/25 05:19:17;;;;;;;;;;;;;;;-1.65;75.23;101185.25;5028513;28;19929;-65
2023/01/25 05:21:57;;;;;;;;;;;;;;;-1.68;75.07;101187.38;5029717;28;20027;-65
2023/01/25 05:24:25;;;;;;;;;;;;;;;-1.68;75.23;101182.03;5012690;28;19933;-65
2023/01/25 05:27:00;;;;;;;;;;;;;;;-1.63;75.00;101179.72;4992445;28;19939;-65
2023/01/25 05:29:28;;;;;;;;;;;;;;;-1.60;75.02;101190.94;5010679;28;19929;-65
2023/01/25 05:32:06;;;;;;;;;;;;;;;-1.56;75.00;101188.78;5033251;28;20392;-65
2023/01/25 05:34:32;;;;;;;;;;;;;;;-1.58;74.84;101186.25;5051748;28;19928;-65
2023/01/25 05:36:59;;;;;;;;;;;;;;;-1.61;74.77;101194.63;5017875;28;19929;-65
2023/01/25 05:39:25;;;;;;;;;;;;;;;-1.62;75.00;101201.00;5040755;28;19929;-65
2023/01/25 05:41:52;;;;;;;;;;;;;;;-1.64;74.63;101191.44;5020615;28;19952;-65
2023/01/25 05:44:18;;;;;;;;;;;;;;;-1.67;74.67;101197.97;5025241;28;19928;-65
2023/01/25 05:46:46;;;;;;;;;;;;;;;-1.73;74.47;101199.44;5007118;28;19975;-65
2023/01/25 05:49:14;;;;;;;;;;;;;;;-1.73;74.66;101199.44;5006355;28;19933;-65
2023/01/25 05:51:40;;;;;;;;;;;;;;;-1.76;74.94;101189.03;5039660;28;19933;-67
2023/01/25 05:54:06;;;;;;;;;;;;;;;-1.77;75.12;101189.19;5017471;28;19983;-65
2023/01/25 05:56:33;;;;;;;;;;;;;;;-1.78;75.34;101184.81;5038856;28;20347;-65
2023/01/25 05:58:59;;;;;;;;;;;;;;;-1.75;75.26;101179.13;5032349;28;19929;-65
2023/01/25 06:01:26;;;;;;;;;;;;;;;-1.75;75.12;101179.13;5023126;28;20027;-66
2023/01/25 06:03:56;;;;;;;;;;;;;;;-1.71;75.11;101184.03;5015391;28;19929;-65
2023/01/25 06:06:25;;;;;;;;;;;;;;;-1.69;74.97;101180.34;4992245;28;19929;-66
2023/01/25 06:08:51;;;;;;;;;;;;;;;-1.72;75.02;101179.66;5020334;28;20025;-66
2023/01/25 06:11:18;;;;;;;;;;;;;;;-1.65;74.89;101187.06;4995552;28;20041;-66
2023/01/25 06:13:45;;;;;;;;;;;;;;;-1.57;74.89;101187.13;5013967;28;20027;-65
2023/01/25 06:16:10;;;;;;;;;;;;;;;-1.45;74.42;101182.31;5030346;28;20016;-66
2023/01/25 06:18:56;;;;;;;;;;;;;;;-1.39;73.99;101187.03;5030341;28;19928;-65
2023/01/25 06:21:39;;;;;;;;;;;;;;;-1.50;73.89;101155.13;5028425;28;19928;-66
2023/01/25 06:24:05;;;;;;;;;;;;;;;-1.39;73.81;101180.81;5040665;28;19964;-66
2023/01/25 06:26:31;;;;;;;;;;;;;;;-1.42;73.75;101176.59;5021261;28;19929;-66
2023/01/25 06:28:57;;;;;;;;;;;;;;;-1.41;73.91;101172.09;5014337;28;19979;-66
2023/01/25 06:31:23;;;;;;;;;;;;;;;-1.39;73.72;101183.50;5044299;28;19929;-66
2023/01/25 06:33:50;;;;;;;;;;;;;;;-1.36;73.31;101175.13;5034659;28;19929;-65
2023/01/25 06:36:17;;;;;;;;;;;;;;;-1.41;73.12;101172.09;4996791;28;19929;-65
2023/01/25 06:38:46;;;;;;;;;;;;;;;-1.44;73.08;101171.41;5031469;28;19933;-65
2023/01/25 06:41:12;;;;;;;;;;;;;;;-1.41;72.93;101169.41;5026218;28;19982;-66
2023/01/25 06:43:38;;;;;;;;;;;;;;;-1.33;72.75;101164.91;5046369;28;20396;-66
2023/01/25 06:46:04;;;;;;;;;;;;;;;-1.22;72.54;101173.69;5039081;28;19935;-66
2023/01/25 06:48:31;;;;;;;;;;;;;;;-1.24;72.10;101168.47;5066196;28;19932;-66
2023/01/25 06:50:57;;;;;;;;;;;;;;;-1.21;72.14;101178.03;5043638;28;19936;-65
2023/01/25 06:53:25;;;;;;;;;;;;;;;-1.10;71.89;101179.56;5064676;28;19960;-65
2023/01/25 06:55:57;;;;;;;;;;;;;;;-1.06;71.79;101173.72;5044131;28;19929;-65
2023/01/25 06:58:23;;;;;;;;;;;;;;;-1.08;71.39;101182.94;5042136;28;19928;-66
2023/01/25 07:00:48;;;;;;;;;;;;;;;-1.12;71.54;101181.59;5045358;28;20392;-66
2023/01/25 07:03:14;;;;;;;;;;;;;;;-1.18;71.62;101183.91;5042659;28;19948;-66
2023/01/25 07:05:40;;;;;;;;;;;;;;;-1.16;71.78;101184.59;5045581;28;19929;-66
2023/01/25 07:08:06;;;;;;;;;;;;;;;-1.22;71.57;101190.59;5049802;28;19982;-66
2023/01/25 07:10:31;;;;;;;;;;;;;;;-1.25;71.94;101192.75;5042531;28;19928;-66
2023/01/25 07:12:59;;;;;;;;;;;;;;;-1.26;71.96;101186.56;5045778;28;20019;-67
2023/01/25 07:15:25;;;;;;;;;;;;;;;-1.19;72.17;101192.13;5064508;28;20363;-66
2023/01/25 07:17:51;;;;;;;;;;;;;;;-1.16;71.95;101195.34;5067808;28;20057;-66
2023/01/25 07:20:17;;;;;;;;;;;;;;;-1.21;72.21;101186.09;5067810;28;20068;-65
2023/01/25 07:22:43;;;;;;;;;;;;;;;-1.22;72.58;101179.88;5031821;28;20025;-66
2023/01/25 07:25:08;;;;;;;;;;;;;;;-1.15;72.24;101182.75;5048280;28;20005;-65
2023/01/25 07:27:34;;;;;;;;;;;;;;;-1.14;72.05;101179.06;5062515;28;19962;-66
2023/01/25 07:30:02;;;;;;;;;;;;;;;-1.20;72.15;101180.53;5050962;28;19929;-65
2023/01/25 07:32:29;;;;;;;;;;;;;;;-1.28;72.58;101177.84;5067071;28;20311;-65
2023/01/25 07:34:54;;;;;;;;;;;;;;;-1.20;72.59;101179.72;5069650;28;19993;-65
2023/01/25 07:37:20;;;;;;;;;;;;;;;-1.24;72.34;101179.19;5053076;28;19928;-65
2023/01/25 07:39:49;;;;;;;;;;;;;;;-1.21;72.32;101178.03;5066004;28;20043;-66
2023/01/25 07:42:15;;;;;;;;;;;;;;;-1.23;71.96;101183.56;5047992;28;20418;-65
2023/01/25 07:44:49;;;;;;;;;;;;;;;-1.35;72.24;101183.03;5021212;28;19935;-66
2023/01/25 07:47:16;;;;;;;;;;;;;;;-1.35;72.43;101185.72;5052696;28;20202;-65
2023/01/25 07:49:42;;;;;;;;;;;;;;;-1.35;72.64;101188.38;5054739;28;19929;-65
2023/01/25 07:52:08;;;;;;;;;;;;;;;-1.36;72.71;101181.34;5030847;28;20027;-64
2023/01/25 07:54:35;;;;;;;;;;;;;;;-1.33;73.00;101174.78;5030599;28;19933;-65
2023/01/25 07:57:01;;;;;;;;;;;;;;;-1.35;72.63;101177.66;5030736;28;19935;-66
2023/01/25 07:59:26;;;;;;;;;;;;;;;-1.37;73.15;101174.28;5029531;28;19932;-66
2023/01/25 08:01:52;;;;;;;;;;;;;;;-1.30;72.90;101167.25;5056577;28;19997;-65
2023/01/25 08:04:20;;;;;;;;;;;;;;;-1.16;72.67;101175.69;5090189;28;19938;-67
2023/01/25 08:06:46;;;;;;;;;;;;;;;-1.02;72.60;101177.75;5090400;28;19967;-67
2023/01/25 08:09:13;;;;;;;;;;;;;;;-0.81;72.20;101168.38;5073834;28;20358;-65
2023/01/25 08:11:40;;;;;;;;;;;;;;;-0.70;71.71;101177.13;5091215;28;20038;-65
2023/01/25 08:14:07;;;;;;;;;;;;;;;-0.79;71.75;101169.03;5039264;28;19928;-65
2023/01/25 08:16:33;;;;;;;;;;;;;;;-0.83;71.88;101177.63;5031403;28;19929;-65
2023/01/25 08:18:59;;;;;;;;;;;;;;;-0.86;72.12;101168.03;5031615;28;19950;-65
2023/01/25 08:21:29;;;;;;;;;;;;;;;-0.86;72.03;101159.97;5049937;28;19975;-65
2023/01/25 08:23:56;;;;;;;;;;;;;;;-0.78;72.44;101162.69;5034330;28;19934;-65
2023/01/25 08:26:22;;;;;;;;;;;;;;;-0.69;71.96;101160.00;5028946;28;20414;-65
2023/01/25 08:28:48;;;;;;;;;;;;;;;-0.67;71.81;101160.66;5051604;28;20465;-65
2023/01/25 08:31:15;;;;;;;;;;;;;;;-0.74;71.81;101168.53;5060425;28;19929;-67
2023/01/25 08:33:41;;;;;;;;;;;;;;;-0.81;72.03;101165.69;5065364;28;19935;-67
2023/01/25 08:36:08;;;;;;;;;;;;;;;-0.92;72.13;101174.09;5067696;28;20307;-66
2023/01/25 08:38:35;;;;;;;;;;;;;;;-0.98;72.44;101172.03;5068309;28;20458;-66
2023/01/25 08:41:04;;;;;;;;;;;;;;;-0.99;72.67;101168.53;5068215;28;19932;-66
2023/01/25 08:43:31;;;;;;;;;;;;;;;-0.94;72.82;101174.22;5047459;28;19933;-65
2023/01/25 08:45:57;;;;;;;;;;;;;;;-1.01;72.89;101157.13;5035748;28;19929;-65
2023/01/25 08:48:23;;;;;;;;;;;;;;;-0.94;73.09;101155.44;5049783;28;20308;-64
2023/01/25 08:50:49;;;;;;;;;;;;;;;-0.81;72.61;101149.56;5039319;28;19975;-65
2023/01/25 08:53:15;;;;;;;;;;;;;;;-0.79;72.21;101155.59;5061825;28;20414;-64
2023/01/25 08:55:44;;;;;;;;;;;;;;;-0.85;72.61;101145.53;5029911;28;19929;-65
2023/01/25 08:58:10;;;;;;;;;;;;;;;-0.78;72.83;101145.72;5036286;28;20352;-65
2023/01/25 09:00:36;;;;;;;;;;;;;;;-0.68;72.54;101135.66;5053924;28;20027;-65
2023/01/25 09:03:01;;;;;;;;;;;;;;;-0.64;72.62;101138.84;5012274;28;20423;-65
2023/01/25 09:05:27;;;;;;;;;;;;;;;-0.59;72.35;101133.81;5027783;28;20383;-65
2023/01/25 09:07:53;;;;;;;;;;;;;;;-0.52;72.31;101128.59;5059328;28;20005;-64
2023/01/25 09:10:19;;;;;;;;;;;;;;;-0.62;71.88;101120.72;5025877;28;20023;-65
2023/01/25 09:12:46;;;;;;;;;;;;;;;-0.70;72.08;101113.50;5029712;28;19945;-66
2023/01/25 09:15:12;;;;;;;;;;;;;;;-0.79;72.37;101112.63;5027842;28;19944;-66
2023/01/25 09:17:38;;;;;;;;;;;;;;;-0.76;72.11;101115.00;5031441;28;19928;-66
2023/01/25 09:20:04;;;;;;;;;;;;;;;-0.79;72.10;101101.88;5043422;28;19980;-66
2023/01/25 09:22:30;;;;;;;;;;;;;;;-0.79;72.03;101104.56;5066995;28;19929;-66
2023/01/25 09:24:56;;;;;;;;;;;;;;;-0.82;72.02;101099.53;5066537;28;19973;-66
2023/01/25 09:27:21;;;;;;;;;;;;;;;-0.86;72.08;101096.38;5064643;28;20315;-66
2023/01/25 09:29:49;;;;;;;;;;;;;;;-0.94;72.21;101103.56;5045371;28;20015;-64
2023/01/25 09:32:15;;;;;;;;;;;;;;;-1.26;72.82;101073.00;5020482;28;19928;-64
2023/01/25 09:34:59;;;;;;;;;;;;;;;-1.10;73.03;101097.16;5066637;28;19928;-65
2023/01/25 09:37:25;;;;;;;;;;;;;;;-1.04;72.97;101090.31;5029054;28;19951;-65
2023/01/25 09:39:51;;;;;;;;;;;;;;;-1.05;72.85;101083.25;5030391;28;19928;-66
2023/01/25 09:42:31;;;;;;;;;;;;;;;-1.05;72.56;101096.69;5063440;28;20031;-65
2023/01/25 09:45:10;;;;;;;;;;;;;;;-1.13;72.49;101078.72;5063367;28;19935;-65
2023/01/25 09:47:40;;;;;;;;;;;;;;;-1.21;72.62;101076.03;5045062;28;20074;-65
2023/01/25 09:50:18;;;;;;;;;;;;;;;-1.19;72.73;101068.66;5029890;28;19935;-65
2023/01/25 09:53:05;;;;;;;;;;;;;;;-1.32;73.00;101053.03;5010026;28;19929;-66
2023/01/25 09:55:32;;;;;;;;;;;;;;;-1.30;73.04;101059.91;5026947;28;19928;-64
2023/01/25 09:58:00;;;;;;;;;;;;;;;-1.30;73.17;101051.03;5060629;28;20067;-64
2023/01/25 10:00:30;;;;;;;;;;;;;;;-1.25;73.00;101045.13;5044473;28;19929;-66
2023/01/25 10:02:58;;;;;;;;;;;;;;;-1.26;73.29;101043.47;5044104;28;20341;-66
2023/01/25 10:05:27;;;;;;;;;;;;;;;-1.30;73.40;101041.13;5047113;28;19933;-66
2023/01/25 10:07:56;;;;;;;;;;;;;;;-1.37;73.88;101039.25;5027419;28;20022;-66
2023/01/25 10:10:26;;;;;;;;;;;;;;;-1.34;74.19;101047.84;5041823;28;20423;-66
2023/01/25 10:12:52;;;;;;;;;;;;;;;-1.37;74.37;101034.75;5027406;28;19990;-66
2023/01/25 10:15:20;;;;;;;;;;;;;;;-1.37;74.66;101037.44;5044839;28;19928;-64
2023/01/25 10:17:57;;;;;;;;;;;;;;;-1.36;74.83;101044.47;5028817;28;20325;-64
2023/01/25 10:20:26;;;;;;;;;;;;;;;-1.39;75.12;101027.84;5028190;28;19929;-64
2023/01/25 10:22:56;;;;;;;;;;;;;;;-1.39;75.21;101020.66;5029385;28;20027;-65
2023/01/25 10:25:27;;;;;;;;;;;;;;;-1.39;75.07;101017.13;5029102;28;19929;-64
2023/01/25 10:28:01;;;;;;;;;;;;;;;-1.49;75.50;101015.41;5030337;28;19947;-66
2023/01/25 10:30:28;;;;;;;;;;;;;;;-1.51;75.37;101020.13;5030257;28;19929;-65
2023/01/25 10:32:57;;;;;;;;;;;;;;;-1.39;75.53;101019.81;5048883;28;19959;-66
2023/01/25 10:35:28;;;;;;;;;;;;;;;-1.41;75.50;101019.13;5012341;28;19939;-66
2023/01/25 10:37:56;;;;;;;;;;;;;;;-1.46;75.52;101025.00;5045764;28;19968;-66
2023/01/25 10:40:22;;;;;;;;;;;;;;;-1.43;75.63;101027.34;5029495;28;20042;-64
2023/01/25 10:42:52;;;;;;;;;;;;;;;-1.43;75.61;101040.75;5060330;28;19974;-65
2023/01/25 10:45:18;;;;;;;;;;;;;;;-1.47;75.23;101026.84;5071694;28;20310;-65
2023/01/25 10:47:46;;;;;;;;;;;;;;;-1.49;75.50;101031.53;5069122;28;19932;-65
2023/01/25 10:50:41;;;;;;;;;;;;;;;-1.51;74.94;101011.25;5052532;28;19929;-65
2023/01/25 10:53:17;;;;;;;;;;;;;;;-1.50;74.92;101015.59;5063837;28;19929;-65
2023/01/25 10:55:53;;;;;;;;;;;;;;;-1.50;74.45;101010.25;5032619;28;19933;-65
2023/01/25 10:58:28;;;;;;;;;;;;;;;-1.64;74.16;101011.72;5052350;28;20370;-65
2023/01/25 11:00:54;;;;;;;;;;;;;;;-1.71;74.59;100998.16;5033218;28;19929;-65
2023/01/25 11:03:21;;;;;;;;;;;;;;;-1.71;74.16;100998.97;5050202;28;19928;-65
2023/01/25 11:05:52;;;;;;;;;;;;;;;-1.67;74.28;100998.63;5032312;28;19935;-64
2023/01/25 11:08:23;;;;;;;;;;;;;;;-1.53;73.72;100991.78;5021967;28;20100;-65
2023/01/25 11:10:49;;;;;;;;;;;;;;;-1.52;73.37;100988.09;5036966;28;19935;-64
2023/01/25 11:13:19;;;;;;;;;;;;;;;-1.13;71.83;100986.63;5068049;28;20026;-65
2023/01/25 11:15:46;;;;;;;;;;;;;;;-1.05;70.86;100984.75;5068509;28;19955;-65
2023/01/25 11:18:14;;;;;;;;;;;;;;;-1.13;70.37;100986.63;5034797;28;20031;-65
2023/01/25 11:20:40;;;;;;;;;;;;;;;-1.35;69.85;100986.25;5049557;28;19928;-65
2023/01/25 11:23:19;;;;;;;;;;;;;;;-1.45;70.24;100978.38;5069397;28;19998;-65
2023/01/25 11:25:45;;;;;;;;;;;;;;;-1.47;69.77;100983.06;5049669;28;19928;-66
2023/01/25 11:28:16;;;;;;;;;;;;;;;-1.53;69.82;100973.84;5048318;28;19928;-66
2023/01/25 11:30:42;;;;;;;;;;;;;;;-1.58;69.62;100985.06;5068604;28;19973;-66
2023/01/25 11:33:09;;;;;;;;;;;;;;;-1.62;69.80;100966.81;5048162;28;19928;-65
2023/01/25 11:35:39;;;;;;;;;;;;;;;-1.61;69.94;100972.00;5032270;28;19928;-65
2023/01/25 11:38:10;;;;;;;;;;;;;;;-1.49;69.87;100960.94;5033633;28;20071;-65
2023/01/25 11:40:40;;;;;;;;;;;;;;;-1.40;69.22;100953.72;5049688;28;19928;-65
2023/01/25 11:43:16;;;;;;;;;;;;;;;-1.34;69.09;100951.22;5056246;28;19928;-64
2023/01/25 11:46:01;;;;;;;;;;;;;;;-1.30;69.11;100949.03;5027876;28;20412;-66
2023/01/25 11:48:42;;;;;;;;;;;;;;;-1.33;69.01;100944.84;5029322;28;19928;-66
2023/01/25 11:51:12;;;;;;;;;;;;;;;-1.35;69.44;100938.81;5048605;28;19939;-66
2023/01/25 11:53:56;;;;;;;;;;;;;;;-1.47;69.48;100916.00;5017628;28;19933;-66
2023/01/25 11:56:31;;;;;;;;;;;;;;;-1.38;69.55;100936.47;5049287;28;19936;-66
2023/01/25 11:59:08;;;;;;;;;;;;;;;-1.42;69.79;100937.78;5046320;28;19935;-64
2023/01/25 12:01:37;;;;;;;;;;;;;;;-1.43;70.04;100936.13;5049204;28;20293;-65
2023/01/25 12:04:16;;;;;;;;;;;;;;;-1.36;70.21;100944.34;5050880;28;19928;-65
2023/01/25 12:06:50;;;;;;;;;;;;;;;-1.31;70.16;100932.09;5048428;28;19979;-65
2023/01/25 12:09:33;;;;;;;;;;;;;;;-1.39;69.94;100926.75;5031782;28;19940;-65
2023/01/25 12:12:09;;;;;;;;;;;;;;;-1.43;70.65;100931.59;5048408;28;19936;-65
2023/01/25 12:14:46;;;;;;;;;;;;;;;-1.37;70.48;100938.16;5047302;28;19932;-65
2023/01/25 12:17:21;;;;;;;;;;;;;;;-1.40;70.20;100940.31;5046853;28;20024;-65
2023/01/25 12:19:56;;;;;;;;;;;;;;;-1.47;70.80;100932.94;5049344;28;19982;-65
2023/01/25 12:22:41;;;;;;;;;;;;;;;-1.41;70.80;100936.78;5047572;28;20007;-65
2023/01/25 12:25:15;;;;;;;;;;;;;;;-1.37;70.66;100946.19;5051643;28;19935;-66
2023/01/25 12:27:49;;;;;;;;;;;;;;;-1.43;70.74;100934.28;5025365;28;19928;-65
2023/01/25 12:30:21;;;;;;;;;;;;;;;-1.38;70.90;100936.47;5032947;28;20482;-65
2023/01/25 12:32:49;;;;;;;;;;;;;;;-1.27;70.53;100931.75;5055299;28;19928;-65
2023/01/25 12:35:21;;;;;;;;;;;;;;;-1.26;70.24;100925.38;5057133;28;19928;-65
2023/01/25 12:37:48;;;;;;;;;;;;;;;-1.24;70.05;100932.25;5029957;28;19928;-65
2023/01/25 12:40:17;;;;;;;;;;;;;;;-1.21;70.09;100925.72;5058243;28;19928;-65
2023/01/25 12:42:48;;;;;;;;;;;;;;;-1.22;69.31;100929.41;5020536;28;20063;-65